createdAt,value
2023-04-20T00:01:13.520Z,10.90
2023-04-20T00:03:41.487Z,10.73
2023-04-20T00:06:09.174Z,10.70
2023-04-20T00:08:36.170Z,12.10
2023-04-20T00:11:02.962Z,10.60
2023-04-20T00:13:29.826Z,11.35
2023-04-20T00:15:56.591Z,13.18
2023-04-20T00:18:23.504Z,14.05
2023-04-20T00:20:50.846Z,10.32
2023-04-20T00:23:17.833Z,10.27
2023-04-20T00:25:44.922Z,11.32
2023-04-20T00:28:12.039Z,10.15
2023-04-20T00:30:40.948Z,10.30
2023-04-20T00:33:07.968Z,9.07
2023-04-20T00:35:34.898Z,9.65
2023-04-20T00:38:01.966Z,12.18
2023-04-20T00:40:30.843Z,12.32
2023-04-20T00:42:57.647Z,11.80
2023-04-20T00:45:24.523Z,10.98
2023-04-20T00:47:51.725Z,12.00
2023-04-20T00:50:19.003Z,11.52
2023-04-20T00:52:46.925Z,13.60
2023-04-20T00:55:13.958Z,10.93
2023-04-20T00:57:41.659Z,11.93
2023-04-20T01:00:10.647Z,10.85
2023-04-20T01:02:37.956Z,13.02
2023-04-20T01:05:08.540Z,11.93
2023-04-20T01:07:36.726Z,14.57
2023-04-20T01:10:04.361Z,14.82
2023-04-20T01:12:31.366Z,12.55
2023-04-20T01:14:58.655Z,12.10
2023-04-20T01:17:25.671Z,11.45
2023-04-20T01:19:52.598Z,11.00
2023-04-20T01:22:21.472Z,10.98
2023-04-20T01:24:48.932Z,12.63
2023-04-20T01:27:17.069Z,11.95
2023-04-20T01:29:44.179Z,11.27
2023-04-20T01:32:11.900Z,9.85
2023-04-20T01:34:39.128Z,10.73
2023-04-20T01:37:08.278Z,9.90
2023-04-20T01:39:39.482Z,9.85
2023-04-20T01:42:07.146Z,13.05
2023-04-20T01:44:33.981Z,9.75
2023-04-20T01:47:01.117Z,10.77
2023-04-20T01:49:28.094Z,10.95
2023-04-20T01:51:55.788Z,9.70
2023-04-20T01:54:22.851Z,9.18
2023-04-20T01:56:49.650Z,13.35
2023-04-20T01:59:16.888Z,9.70
2023-04-20T02:01:43.946Z,14.50
2023-04-20T02:04:10.896Z,8.40
2023-04-20T02:06:40.870Z,10.52
2023-04-20T02:09:09.523Z,8.05
2023-04-20T02:11:36.554Z,10.05
2023-04-20T02:14:06.152Z,10.93
2023-04-20T02:16:33.155Z,9.82
2023-04-20T02:19:00.233Z,10.23
2023-04-20T02:21:28.008Z,12.32
2023-04-20T02:23:55.101Z,10.88
2023-04-20T02:26:22.047Z,10.70
2023-04-20T02:28:49.034Z,8.40
2023-04-20T02:31:15.839Z,10.18
2023-04-20T02:33:45.075Z,7.82
2023-04-20T02:36:12.137Z,9.27
2023-04-20T02:38:40.496Z,11.05
2023-04-20T02:41:07.878Z,10.52
2023-04-20T02:43:36.327Z,8.40
2023-04-20T02:46:04.789Z,9.82
2023-04-20T02:48:31.776Z,8.40
2023-04-20T02:50:59.460Z,10.55
2023-04-20T02:53:30.933Z,7.90
2023-04-20T02:56:19.461Z,8.20
2023-04-20T02:58:52.260Z,10.38
2023-04-20T03:01:30.365Z,8.25
2023-04-20T03:04:23.591Z,10.40
2023-04-20T03:07:10.878Z,9.63
2023-04-20T03:09:39.464Z,11.07
2023-04-20T03:12:18.684Z,10.38
2023-04-20T03:14:49.012Z,10.18
2023-04-20T03:17:18.617Z,10.50
2023-04-20T03:19:46.556Z,7.70
2023-04-20T03:22:13.485Z,9.05
2023-04-20T03:24:40.761Z,12.27
2023-04-20T03:27:30.733Z,10.02
2023-04-20T03:30:06.979Z,10.60
2023-04-20T03:32:33.833Z,11.10
2023-04-20T03:35:00.838Z,11.40
2023-04-20T03:37:28.145Z,11.75
2023-04-20T03:39:55.170Z,11.98
2023-04-20T03:42:22.066Z,9.00
2023-04-20T03:44:48.882Z,9.50
2023-04-20T03:47:15.877Z,9.48
2023-04-20T03:49:43.295Z,11.18
2023-04-20T03:52:12.829Z,11.27
2023-04-20T03:54:40.630Z,11.05
2023-04-20T03:57:07.846Z,10.55
2023-04-20T03:59:34.885Z,11.45
2023-04-20T04:02:05.920Z,12.55
2023-04-20T04:04:33.261Z,13.35
2023-04-20T04:07:00.922Z,38.40
2023-04-20T04:09:27.752Z,27.35
2023-04-20T04:11:54.888Z,16.88
2023-04-20T04:14:23.732Z,16.27
2023-04-20T04:16:50.611Z,11.32
2023-04-20T04:19:17.856Z,13.43
2023-04-20T04:21:44.899Z,10.50
2023-04-20T04:24:14.263Z,10.00
2023-04-20T04:27:05.168Z,11.57
2023-04-20T04:29:36.034Z,12.40
2023-04-20T04:32:05.959Z,12.20
2023-04-20T04:34:34.183Z,10.68
2023-04-20T04:37:01.893Z,10.02
2023-04-20T04:39:41.421Z,10.45
2023-04-20T04:42:18.858Z,12.55
2023-04-20T04:44:47.212Z,12.18
2023-04-20T04:47:22.006Z,13.38
2023-04-20T04:49:49.824Z,9.45
2023-04-20T04:52:16.622Z,10.73
2023-04-20T04:54:43.550Z,12.10
2023-04-20T04:57:10.318Z,10.52
2023-04-20T04:59:37.434Z,10.00
2023-04-20T05:02:04.899Z,10.93
2023-04-20T05:04:32.212Z,11.32
2023-04-20T05:06:59.123Z,11.63
2023-04-20T05:09:26.552Z,12.05
2023-04-20T05:11:53.395Z,12.18
2023-04-20T05:14:20.294Z,10.38
2023-04-20T05:16:47.296Z,19.98
2023-04-20T05:19:14.107Z,9.13
2023-04-20T05:21:40.976Z,11.98
2023-04-20T05:24:07.908Z,10.55
2023-04-20T05:26:34.665Z,11.68
2023-04-20T05:29:01.779Z,12.52
2023-04-20T05:31:29.190Z,10.48
2023-04-20T05:33:56.068Z,8.93
2023-04-20T05:36:22.850Z,10.35
2023-04-20T05:38:50.248Z,10.85
2023-04-20T05:41:17.387Z,11.57
2023-04-20T05:43:44.184Z,12.13
2023-04-20T05:46:11.031Z,12.57
2023-04-20T05:48:37.900Z,12.55
2023-04-20T05:51:04.958Z,10.82
2023-04-20T05:53:31.911Z,10.85
2023-04-20T05:55:58.738Z,15.18
2023-04-20T05:58:27.295Z,8.63
2023-04-20T06:00:54.634Z,11.45
2023-04-20T06:03:21.706Z,10.88
2023-04-20T06:05:48.761Z,9.30
2023-04-20T06:08:15.622Z,11.27
2023-04-20T06:10:42.578Z,10.82
2023-04-20T06:13:09.391Z,9.23
2023-04-20T06:15:36.732Z,10.18
2023-04-20T06:18:03.985Z,8.88
2023-04-20T06:20:30.878Z,9.85
2023-04-20T06:22:57.957Z,11.32
2023-04-20T06:25:25.484Z,13.40
2023-04-20T06:27:52.922Z,8.90
2023-04-20T06:30:20.266Z,9.35
2023-04-20T06:32:47.091Z,12.18
2023-04-20T06:35:14.095Z,9.38
2023-04-20T06:37:40.924Z,11.75
2023-04-20T06:40:08.838Z,7.78
2023-04-20T06:42:36.462Z,9.65
2023-04-20T06:45:05.765Z,11.57
2023-04-20T06:47:33.605Z,10.95
2023-04-20T06:50:02.305Z,9.27
2023-04-20T06:52:30.581Z,14.18
2023-04-20T06:54:59.277Z,11.65
2023-04-20T06:57:26.333Z,11.30
2023-04-20T06:59:53.468Z,11.77
2023-04-20T07:02:21.109Z,12.15
2023-04-20T07:04:48.042Z,10.50
2023-04-20T07:07:14.953Z,10.95
2023-04-20T07:09:42.088Z,12.32
2023-04-20T07:12:11.415Z,9.35
2023-04-20T07:14:38.408Z,10.80
2023-04-20T07:17:05.254Z,9.50
2023-04-20T07:19:32.710Z,12.07
2023-04-20T07:21:59.596Z,8.20
2023-04-20T07:24:26.337Z,13.05
2023-04-20T07:26:53.406Z,10.60
2023-04-20T07:29:20.699Z,10.45
2023-04-20T07:31:48.497Z,8.90
2023-04-20T07:34:15.628Z,9.52
2023-04-20T07:36:42.514Z,9.75
2023-04-20T07:39:09.416Z,11.60
2023-04-20T07:41:36.708Z,9.48
2023-04-20T07:44:03.693Z,9.68
2023-04-20T07:46:34.151Z,10.68
2023-04-20T07:49:01.121Z,12.13
2023-04-20T07:51:30.246Z,11.30
2023-04-20T07:53:57.268Z,9.70
2023-04-20T07:56:24.327Z,10.55
2023-04-20T07:58:51.156Z,13.13
2023-04-20T08:01:18.507Z,11.23
2023-04-20T08:03:45.663Z,9.93
2023-04-20T08:06:12.583Z,11.88
2023-04-20T08:08:39.490Z,10.90
2023-04-20T08:11:08.145Z,9.68
2023-04-20T08:13:37.528Z,11.68
2023-04-20T08:16:04.700Z,13.18
2023-04-20T08:18:31.639Z,11.65
2023-04-20T08:20:58.582Z,10.90
2023-04-20T08:23:28.098Z,10.32
2023-04-20T08:25:55.254Z,8.90
2023-04-20T08:30:56.614Z,10.13
2023-04-20T08:33:23.574Z,10.00
2023-04-20T08:35:51.632Z,11.32
2023-04-20T08:38:23.807Z,11.30
2023-04-20T08:40:58.530Z,14.20
2023-04-20T08:43:25.400Z,11.50
2023-04-20T08:45:55.665Z,9.77
2023-04-20T08:48:22.984Z,9.93
2023-04-20T08:50:50.397Z,12.07
2023-04-20T08:53:17.774Z,11.48
2023-04-20T08:55:44.880Z,11.85
2023-04-20T08:58:11.647Z,11.30
2023-04-20T09:00:47.292Z,9.95
2023-04-20T09:03:14.397Z,12.32
2023-04-20T09:05:41.493Z,11.27
2023-04-20T09:08:08.752Z,11.52
2023-04-20T09:10:42.189Z,11.45
2023-04-20T09:13:10.249Z,9.65
2023-04-20T09:15:38.161Z,11.48
2023-04-20T09:18:15.257Z,10.00
2023-04-20T09:20:42.072Z,11.98
2023-04-20T09:23:17.905Z,12.45
2023-04-20T09:25:46.953Z,12.93
2023-04-20T09:28:14.039Z,13.55
2023-04-20T09:30:43.700Z,12.05
2023-04-20T09:33:12.617Z,13.75
2023-04-20T09:35:41.939Z,12.95
2023-04-20T09:38:09.924Z,13.15
2023-04-20T09:40:36.876Z,13.70
2023-04-20T09:43:19.128Z,27.05
2023-04-20T09:45:46.122Z,13.02
2023-04-20T09:48:18.945Z,12.00
2023-04-20T09:50:49.656Z,10.90
2023-04-20T09:53:18.664Z,10.60
2023-04-20T09:55:50.098Z,10.60
2023-04-20T09:58:21.597Z,8.50
2023-04-20T10:00:49.117Z,11.25
2023-04-20T10:03:20.349Z,9.07
2023-04-20T10:05:47.504Z,9.38
2023-04-20T10:08:14.405Z,9.25
2023-04-20T10:10:49.690Z,10.45
2023-04-20T10:13:21.689Z,9.15
2023-04-20T10:15:48.951Z,10.25
2023-04-20T10:18:24.599Z,9.52
2023-04-20T10:21:03.698Z,10.82
2023-04-20T10:23:30.671Z,12.57
2023-04-20T10:26:01.853Z,9.90
2023-04-20T10:28:49.116Z,11.35
2023-04-20T10:31:17.000Z,9.10
2023-04-20T10:33:55.421Z,10.05
2023-04-20T10:36:27.742Z,9.82
2023-04-20T10:38:55.894Z,10.60
2023-04-20T10:41:22.944Z,10.10
2023-04-20T10:43:50.424Z,10.05
2023-04-20T10:46:19.248Z,9.95
2023-04-20T10:48:57.002Z,11.73
2023-04-20T10:51:24.992Z,9.65
2023-04-20T10:54:04.454Z,10.13
2023-04-20T10:56:38.335Z,16.15
2023-04-20T10:59:10.465Z,10.93
2023-04-20T11:01:41.326Z,10.32
2023-04-20T11:04:10.624Z,11.80
2023-04-20T11:06:42.797Z,10.05
2023-04-20T11:09:24.781Z,9.45
2023-04-20T11:12:02.064Z,11.60
2023-04-20T11:14:30.691Z,8.80
2023-04-20T11:16:57.669Z,8.85
2023-04-20T11:19:30.374Z,10.25
2023-04-20T11:21:57.793Z,10.52
2023-04-20T11:24:26.673Z,11.43
2023-04-20T11:26:54.586Z,12.65
2023-04-20T11:29:34.799Z,11.77
2023-04-20T11:32:04.906Z,10.70
2023-04-20T11:34:32.778Z,10.18
2023-04-20T11:37:06.752Z,11.95
2023-04-20T11:39:34.150Z,10.07
2023-04-20T11:42:02.103Z,11.43
2023-04-20T11:44:28.877Z,11.80
2023-04-20T11:46:59.978Z,11.63
2023-04-20T11:49:29.327Z,11.23
2023-04-20T11:51:56.218Z,11.07
2023-04-20T11:54:24.162Z,11.40
2023-04-20T11:56:51.772Z,12.75
2023-04-20T11:59:20.485Z,12.82
2023-04-20T12:01:48.112Z,12.23
2023-04-20T12:04:16.083Z,11.90
2023-04-20T12:06:43.981Z,15.18
2023-04-20T12:09:11.228Z,11.23
2023-04-20T12:11:38.584Z,11.70
2023-04-20T12:14:05.361Z,9.38
2023-04-20T12:16:32.350Z,11.13
2023-04-20T12:18:59.512Z,10.13
2023-04-20T12:21:27.362Z,13.45
2023-04-20T12:23:54.206Z,11.10
2023-04-20T12:26:22.560Z,13.95
2023-04-20T12:28:50.707Z,16.83
2023-04-20T12:31:17.673Z,13.15
2023-04-20T12:33:44.584Z,13.73
2023-04-20T12:36:11.414Z,14.38
2023-04-20T12:38:38.270Z,10.80
2023-04-20T12:41:05.245Z,12.10
2023-04-20T12:43:32.285Z,11.77
2023-04-20T12:45:59.467Z,12.45
2023-04-20T12:48:26.504Z,11.95
2023-04-20T12:50:53.299Z,10.82
2023-04-20T12:53:20.261Z,11.65
2023-04-20T12:55:47.433Z,10.32
2023-04-20T12:58:16.163Z,10.73
2023-04-20T13:00:43.364Z,14.35
2023-04-20T13:03:10.652Z,18.85
2023-04-20T13:05:37.729Z,22.65
2023-04-20T13:08:04.607Z,15.77
2023-04-20T13:10:31.461Z,11.20
2023-04-20T13:12:59.650Z,9.43
2023-04-20T13:15:38.017Z,9.57
2023-04-20T13:18:06.506Z,9.02
2023-04-20T13:20:33.380Z,10.13
2023-04-20T13:23:01.452Z,8.88
2023-04-20T13:25:32.788Z,8.80
2023-04-20T13:28:01.102Z,9.55
2023-04-20T13:30:28.360Z,9.43
2023-04-20T13:32:55.734Z,8.93
2023-04-20T13:35:23.012Z,9.27
2023-04-20T13:37:49.962Z,12.07
2023-04-20T13:40:16.788Z,9.73
2023-04-20T13:42:43.609Z,9.70
2023-04-20T13:45:10.780Z,10.32
2023-04-20T13:47:38.970Z,10.50
2023-04-20T13:50:07.252Z,9.60
2023-04-20T13:52:34.057Z,8.98
2023-04-20T13:55:00.852Z,10.00
2023-04-20T13:57:28.146Z,9.23
2023-04-20T13:59:55.044Z,9.05
2023-04-20T14:02:21.902Z,11.38
2023-04-20T14:04:48.899Z,9.93
2023-04-20T14:07:15.701Z,9.35
2023-04-20T14:09:44.255Z,9.20
2023-04-20T14:12:12.079Z,10.88
2023-04-20T14:14:39.082Z,9.55
2023-04-20T14:17:06.048Z,10.30
2023-04-20T14:19:33.030Z,11.18
2023-04-20T14:21:59.818Z,10.13
2023-04-20T14:24:26.583Z,13.35
2023-04-20T14:26:54.220Z,12.63
2023-04-20T14:29:21.137Z,11.05
2023-04-20T14:31:48.080Z,10.05
2023-04-20T14:34:15.030Z,11.38
2023-04-20T14:36:41.987Z,11.90
2023-04-20T14:39:08.747Z,12.30
2023-04-20T14:41:35.699Z,10.90
2023-04-20T14:44:02.658Z,10.93
2023-04-20T14:46:29.724Z,12.52
2023-04-20T14:48:56.619Z,11.20
2023-04-20T14:51:23.459Z,12.23
2023-04-20T14:53:50.750Z,12.07
2023-04-20T14:56:17.774Z,13.00
2023-04-20T14:58:44.663Z,13.25
2023-04-20T15:01:11.497Z,11.10
2023-04-20T15:03:38.874Z,10.43
2023-04-20T15:06:06.212Z,10.57
2023-04-20T15:08:33.730Z,10.63
2023-04-20T15:11:02.270Z,10.77
2023-04-20T15:13:29.040Z,10.65
2023-04-20T15:15:55.922Z,10.60
2023-04-20T15:18:22.785Z,10.80
2023-04-20T15:20:52.359Z,10.90
2023-04-20T15:23:19.856Z,13.73
2023-04-20T15:25:46.856Z,9.77
2023-04-20T15:28:14.420Z,12.07
2023-04-20T15:30:41.794Z,10.88
2023-04-20T15:33:08.780Z,13.93
2023-04-20T15:35:35.726Z,10.88
2023-04-20T15:38:03.426Z,10.38
2023-04-20T15:40:30.406Z,10.88
2023-04-20T15:43:00.520Z,10.40
2023-04-20T15:45:27.300Z,10.68
2023-04-20T15:47:55.972Z,9.48
2023-04-20T15:50:23.772Z,9.38
2023-04-20T15:52:52.845Z,10.63
2023-04-20T15:55:19.691Z,9.45
2023-04-20T15:57:46.467Z,11.40
2023-04-20T16:00:14.355Z,9.95
2023-04-20T16:02:41.465Z,10.48
2023-04-20T16:05:09.462Z,8.65
2023-04-20T16:07:36.354Z,11.82
2023-04-20T16:10:05.497Z,8.80
2023-04-20T16:12:32.488Z,11.68
2023-04-20T16:15:01.241Z,11.75
2023-04-20T16:17:28.243Z,13.13
2023-04-20T16:19:55.041Z,13.80
2023-04-20T16:22:22.047Z,13.02
2023-04-20T16:24:48.917Z,10.23
2023-04-20T16:27:16.308Z,12.25
2023-04-20T16:29:43.558Z,13.10
2023-04-20T16:32:11.906Z,18.77
2023-04-20T16:34:38.634Z,13.55
2023-04-20T16:37:08.457Z,14.75
2023-04-20T16:39:36.599Z,18.48
2023-04-20T16:42:04.060Z,17.70
2023-04-20T16:44:31.201Z,13.32
2023-04-20T16:46:58.155Z,12.50
2023-04-20T16:49:25.207Z,11.07
2023-04-20T16:51:52.465Z,11.88
2023-04-20T16:54:19.455Z,12.63
2023-04-20T16:56:46.660Z,9.73
2023-04-20T16:59:13.728Z,10.95
2023-04-20T17:01:41.054Z,12.55
2023-04-20T17:04:08.170Z,15.38
2023-04-20T17:06:35.418Z,13.40
2023-04-20T17:09:06.813Z,14.77
2023-04-20T17:11:38.105Z,12.57
2023-04-20T17:14:05.360Z,13.23
2023-04-20T17:16:32.219Z,12.55
2023-04-20T17:18:59.017Z,14.85
2023-04-20T17:21:28.970Z,11.57
2023-04-20T17:23:56.563Z,15.48
2023-04-20T17:26:27.028Z,13.75
2023-04-20T17:28:53.891Z,15.50
2023-04-20T17:31:20.807Z,14.45
2023-04-20T17:33:48.235Z,11.88
2023-04-20T17:36:15.225Z,12.27
2023-04-20T17:38:43.097Z,13.15
2023-04-20T17:41:10.045Z,14.77
2023-04-20T17:43:40.266Z,15.38
2023-04-20T17:46:07.992Z,12.35
2023-04-20T17:48:34.823Z,12.18
2023-04-20T17:51:01.695Z,14.95
2023-04-20T17:53:28.607Z,14.18
2023-04-20T17:55:55.689Z,13.35
2023-04-20T17:58:23.392Z,13.70
2023-04-20T18:00:51.175Z,13.93
2023-04-20T18:03:19.906Z,14.35
2023-04-20T18:05:46.981Z,16.10
2023-04-20T18:08:15.922Z,16.17
2023-04-20T18:10:43.312Z,21.35
2023-04-20T18:13:10.259Z,17.52
2023-04-20T18:15:37.085Z,13.27
2023-04-20T18:18:04.016Z,15.27
2023-04-20T18:20:32.375Z,11.70
2023-04-20T18:22:59.513Z,15.65
2023-04-20T18:25:27.036Z,14.63
2023-04-20T18:27:53.928Z,15.10
2023-04-20T18:30:21.297Z,15.57
2023-04-20T18:32:48.170Z,15.95
2023-04-20T18:35:15.643Z,15.02
2023-04-20T18:37:42.541Z,14.95
2023-04-20T18:40:09.797Z,17.55
2023-04-20T18:42:36.634Z,17.23
2023-04-20T18:45:03.850Z,19.95
2023-04-20T18:47:31.002Z,23.67
2023-04-20T18:49:57.864Z,26.40
2023-04-20T18:52:24.781Z,22.88
2023-04-20T18:54:51.864Z,18.67
2023-04-20T18:57:21.564Z,21.63
2023-04-20T18:59:48.526Z,22.50
2023-04-20T19:02:15.542Z,25.90
2023-04-20T19:04:43.796Z,27.50
2023-04-20T19:07:10.763Z,30.38
2023-04-20T19:09:38.042Z,27.90
2023-04-20T19:12:05.666Z,28.02
2023-04-20T19:14:32.514Z,27.20
2023-04-20T19:17:02.033Z,28.05
2023-04-20T19:19:29.130Z,29.02
2023-04-20T19:21:57.491Z,36.65
2023-04-20T19:24:24.452Z,38.90
2023-04-20T19:26:51.733Z,35.30
2023-04-20T19:29:19.057Z,38.80
2023-04-20T19:31:46.025Z,35.92
2023-04-20T19:34:13.321Z,47.65
2023-04-20T19:36:41.769Z,49.90
2023-04-20T19:39:09.614Z,49.97
2023-04-20T19:41:36.700Z,41.65
2023-04-20T19:44:06.978Z,47.30
2023-04-20T19:46:34.069Z,50.92
2023-04-20T19:49:01.330Z,47.13
2023-04-20T19:51:28.484Z,47.83
2023-04-20T19:53:58.673Z,44.53
2023-04-20T19:56:26.551Z,51.95
2023-04-20T19:58:53.393Z,40.35
2023-04-20T20:01:20.443Z,38.38
2023-04-20T20:03:47.378Z,45.15
2023-04-20T20:06:14.447Z,44.00
2023-04-20T20:08:41.244Z,38.72
2023-04-20T20:11:08.148Z,45.85
2023-04-20T20:13:35.156Z,43.97
2023-04-20T20:16:02.871Z,50.63
2023-04-20T20:18:31.049Z,44.53
2023-04-20T20:20:57.950Z,45.00
2023-04-20T20:23:24.706Z,41.67
2023-04-20T20:25:52.361Z,42.90
2023-04-20T20:28:19.233Z,41.42
2023-04-20T20:30:46.080Z,43.47
2023-04-20T20:33:13.299Z,44.03
2023-04-20T20:35:41.367Z,42.45
2023-04-20T20:38:08.880Z,38.95
2023-04-20T20:40:35.971Z,35.78
2023-04-20T20:43:03.905Z,32.97
2023-04-20T20:45:31.866Z,30.13
2023-04-20T20:47:59.230Z,36.42
2023-04-20T20:50:27.849Z,39.05
2023-04-20T20:52:55.340Z,30.23
2023-04-20T20:55:22.418Z,28.08
2023-04-20T20:57:49.338Z,30.30
2023-04-20T21:00:16.436Z,33.75
2023-04-20T21:02:43.607Z,29.40
2023-04-20T21:05:10.959Z,28.65
2023-04-20T21:07:39.126Z,34.30
2023-04-20T21:10:06.568Z,26.67
2023-04-20T21:12:33.370Z,36.22
2023-04-20T21:15:00.382Z,34.28
2023-04-20T21:17:27.225Z,35.70
2023-04-20T21:19:54.197Z,32.63
2023-04-20T21:22:22.784Z,36.55
2023-04-20T21:24:49.635Z,35.25
2023-04-20T21:27:16.403Z,32.67
2023-04-20T21:29:43.187Z,35.78
2023-04-20T21:32:10.323Z,36.05
2023-04-20T21:34:37.137Z,36.67
2023-04-20T21:37:05.498Z,31.35
2023-04-20T21:39:32.532Z,31.02
2023-04-20T21:41:59.892Z,25.95
2023-04-20T21:44:27.277Z,24.33
2023-04-20T21:46:54.304Z,30.48
2023-04-20T21:49:21.409Z,30.45
2023-04-20T21:51:48.711Z,36.05
2023-04-20T21:54:15.948Z,38.15
2023-04-20T21:56:42.830Z,31.23
2023-04-20T21:59:09.611Z,29.80
2023-04-20T22:01:36.534Z,29.80
2023-04-20T22:04:04.612Z,35.05
2023-04-20T22:06:32.650Z,28.75
2023-04-20T22:08:59.483Z,39.22
2023-04-20T22:11:26.288Z,38.55
2023-04-20T22:13:53.087Z,41.40
2023-04-20T22:16:21.827Z,42.03
2023-04-20T22:18:49.254Z,34.83
2023-04-20T22:21:16.199Z,42.95
2023-04-20T22:23:43.188Z,39.28
2023-04-20T22:26:10.156Z,42.67
2023-04-20T22:28:37.088Z,45.28
2023-04-20T22:31:04.129Z,49.67
2023-04-20T22:33:31.041Z,52.08
2023-04-20T22:35:57.839Z,56.20
2023-04-20T22:38:24.769Z,52.10
2023-04-20T22:40:51.550Z,54.50
2023-04-20T22:43:18.365Z,52.30
2023-04-20T22:45:45.147Z,53.38
2023-04-20T22:48:12.519Z,52.83
2023-04-20T22:50:40.543Z,46.92
2023-04-20T22:53:07.361Z,44.95
2023-04-20T22:55:34.127Z,46.28
2023-04-20T22:58:00.891Z,37.42
2023-04-20T23:00:27.744Z,38.95
2023-04-20T23:02:54.992Z,35.15
2023-04-20T23:05:22.231Z,34.92
2023-04-20T23:07:49.295Z,37.20
2023-04-20T23:10:16.534Z,30.00
2023-04-20T23:12:44.583Z,34.78
2023-04-20T23:15:12.034Z,49.50
2023-04-20T23:17:39.457Z,37.47
2023-04-20T23:20:13.820Z,34.28
2023-04-20T23:22:40.896Z,34.67
2023-04-20T23:25:09.553Z,32.97
2023-04-20T23:27:36.619Z,32.50
2023-04-20T23:30:04.130Z,33.42
2023-04-20T23:32:31.395Z,31.95
2023-04-20T23:34:58.205Z,31.88
2023-04-20T23:37:25.353Z,34.60
2023-04-20T23:39:52.295Z,34.22
2023-04-20T23:42:19.256Z,32.72
2023-04-20T23:44:46.075Z,30.38
2023-04-20T23:47:12.937Z,35.20
2023-04-20T23:49:39.791Z,35.20
2023-04-20T23:52:06.625Z,28.23
2023-04-20T23:54:33.590Z,29.23
2023-04-20T23:57:00.673Z,27.45
2023-04-20T23:59:27.534Z,24.15
